Terminal Aerodrome Forecast
Issued by NWS

Home | Current Version | Previous Version | Text Only | Print | Product List | Glossary On
Versions: 1 2 3 4 5 6 7 8 9 10 11 12 13 14 15 16 17 18
000
FTUS43 KIND 311700
TAFBMG
TAF
KBMG 311721Z 3118/0118 33016G25KT P6SM SCT015 OVC025
      TEMPO 3118/3121 5SM -RA BR
     FM312100 33020G32KT P6SM SCT015 OVC025
      TEMPO 3121/0101 5SM -SHRASN
     FM010600 34015G23KT P6SM SCT025 BKN040
     FM011500 01011G19KT P6SM SCT040=

USA.gov is the U.S. government's official web portal to all federal, state and local government web resources and services.